Time;durP1;ratioP1;P1;durP2;ratioP2;P2;SDS_P1;SDS_P2;PMS_P1;PMS_P2;Temp;Humidity;BMP_temperature;BMP_pressure;BME280_temperature;BME280_humidity;BME280_pressure;Samples;Min_cycle;Max_cycle;Signal;HPM_P1;HPM_P2
2022/12/05 00:00:27;;;;;;;;;;;;;;;8.37;100.00;99465.84;6338340;22;20337;-88
2022/12/05 00:02:53;;;;;;;;;;;;;;;8.37;100.00;99471.13;6339633;22;19986;-86
2022/12/05 00:05:20;;;;;;;;;;;;;;;8.35;100.00;99470.34;6338245;22;19960;-87
2022/12/05 00:07:46;;;;;;;;;;;;;;;8.37;100.00;99478.19;6365800;22;19914;-89
2022/12/05 00:10:12;;;;;;;;;;;;;;;8.37;100.00;99478.19;6332929;22;19995;-87
2022/12/05 00:12:40;;;;;;;;;;;;;;;8.39;100.00;99480.78;6365376;22;19970;-93
2022/12/05 00:15:08;;;;;;;;;;;;;;;8.37;100.00;99472.94;6336982;22;19915;-87
2022/12/05 00:17:33;;;;;;;;;;;;;;;8.37;100.00;99473.78;6336967;22;20424;-86
2022/12/05 00:19:59;;;;;;;;;;;;;;;8.37;100.00;99473.78;6336740;22;19942;-85
2022/12/05 00:22:25;;;;;;;;;;;;;;;8.38;100.00;99477.28;6311036;22;19919;-86
2022/12/05 00:24:50;;;;;;;;;;;;;;;8.39;100.00;99478.16;6335524;22;19906;-85
2022/12/05 00:27:16;;;;;;;;;;;;;;;8.37;100.00;99479.06;6337072;22;20246;-87
2022/12/05 00:29:41;;;;;;;;;;;;;;;8.39;100.00;99478.16;6336861;22;19915;-87
2022/12/05 00:32:06;;;;;;;;;;;;;;;8.38;100.00;99474.66;6330296;22;19907;-87
2022/12/05 00:34:31;;;;;;;;;;;;;;;8.39;100.00;99462.31;6336746;22;20002;-86
2022/12/05 00:36:57;;;;;;;;;;;;;;;8.39;100.00;99471.06;6336125;22;19918;-86
2022/12/05 03:13:28;;;;;;;;;;;;;;;8.46;100.00;99501.66;6188469;23;19927;-89
2022/12/05 03:15:58;;;;;;;;;;;;;;;8.46;100.00;99493.72;6187611;23;19995;-88
2022/12/05 03:18:25;;;;;;;;;;;;;;;8.46;100.00;99499.00;6160661;23;19983;-83
2022/12/05 03:20:59;;;;;;;;;;;;;;;8.46;100.00;99492.88;6160760;23;19943;-84
2022/12/05 03:23:48;;;;;;;;;;;;;;;8.46;100.00;99493.72;6160631;23;19908;-84
2022/12/05 03:26:22;;;;;;;;;;;;;;;8.48;100.00;99502.44;6140755;23;19912;-85
2022/12/05 03:29:00;;;;;;;;;;;;;;;8.47;100.00;99506.03;6187148;23;20295;-84
2022/12/05 03:31:39;;;;;;;;;;;;;;;8.48;100.00;99507.72;6187065;23;19916;-87
2022/12/05 03:34:06;;;;;;;;;;;;;;;8.48;100.00;99512.16;6187443;23;19916;-87
2022/12/05 03:36:37;;;;;;;;;;;;;;;8.50;100.00;99524.38;6160524;23;20051;-87
2022/12/05 03:39:18;;;;;;;;;;;;;;;8.49;100.00;99527.94;6186951;23;19916;-88
2022/12/05 03:42:08;;;;;;;;;;;;;;;8.49;100.00;99533.22;6159756;23;19912;-90
2022/12/05 03:44:36;;;;;;;;;;;;;;;8.48;100.00;99531.50;6160529;23;19952;-87
2022/12/05 03:47:28;;;;;;;;;;;;;;;8.49;100.00;99529.72;6160949;23;19935;-87
2022/12/05 03:50:00;;;;;;;;;;;;;;;8.49;100.00;99535.00;6115743;23;19935;-88
2022/12/05 03:52:34;;;;;;;;;;;;;;;8.49;100.00;99540.28;6160533;23;20272;-91
2022/12/05 03:55:06;;;;;;;;;;;;;;;8.51;100.00;99539.28;6180042;23;19912;-87
2022/12/05 03:57:37;;;;;;;;;;;;;;;8.48;100.00;99534.13;6186841;23;19912;-86
2022/12/05 04:00:06;;;;;;;;;;;;;;;8.50;100.00;99529.66;6186642;23;19912;-89
2022/12/05 04:02:44;;;;;;;;;;;;;;;8.50;100.00;99531.44;6185306;23;19919;-89
2022/12/05 04:05:17;;;;;;;;;;;;;;;8.51;100.00;99528.72;6160594;23;19909;-88
2022/12/05 04:07:45;;;;;;;;;;;;;;;8.49;100.00;99538.50;6160243;23;19947;-89
2022/12/05 04:10:14;;;;;;;;;;;;;;;8.50;100.00;99537.59;6158477;23;19909;-89
2022/12/05 04:12:41;;;;;;;;;;;;;;;8.51;100.00;99534.00;6178742;23;19916;-87
2022/12/05 04:15:09;;;;;;;;;;;;;;;8.50;100.00;99537.59;6215181;23;19919;-89
2022/12/05 04:17:46;;;;;;;;;;;;;;;8.50;100.00;99534.06;6189881;23;19912;-88
2022/12/05 04:23:02;;;;;;;;;;;;;;;8.51;100.00;99522.59;6216972;23;19966;-91
2022/12/05 04:25:35;;;;;;;;;;;;;;;8.52;100.00;99530.47;6213764;23;19974;-90
2022/12/05 04:28:06;;;;;;;;;;;;;;;8.50;100.00;99527.03;6215023;23;20240;-90
2022/12/05 04:30:38;;;;;;;;;;;;;;;8.52;100.00;99527.81;6190206;23;19919;-90
2022/12/05 04:33:14;;;;;;;;;;;;;;;8.51;100.00;99528.72;6209574;23;19911;-90
2022/12/05 04:35:42;;;;;;;;;;;;;;;8.50;100.00;99534.06;6214911;23;19918;-89
2022/12/05 08:44:15;;;;;;;;;;;;;;;;;;;;;
2022/12/05 08:56:11;;;;;;;;;;;;;;;8.63;100.00;99728.16;6105470;22;20230;-89
2022/12/05 08:59:08;;;;;;;;;;;;;;;;;;;;;
2022/12/05 10:02:00;;;;;;;;;;;;;;;;;;;;;
2022/12/05 10:05:01;;;;;;;;;;;;;;;;;;;;;
2022/12/05 10:11:00;;;;;;;;;;;;;;;8.70;100.00;99776.34;6259192;22;19910;-90
2022/12/05 10:14:12;;;;;;;;;;;;;;;;;;;;;
2022/12/05 10:30:01;;;;;;;;;;;;;;;;;;;;;
2022/12/05 10:32:55;;;;;;;;;;;;;;;;;;;;;
2022/12/05 10:35:49;;;;;;;;;;;;;;;8.72;100.00;99775.34;6306803;22;19974;-91
2022/12/05 10:44:41;;;;;;;;;;;;;;;8.73;100.00;99770.94;6124283;23;19913;-90
2022/12/05 10:50:49;;;;;;;;;;;;;;;;;;;;;
2022/12/05 10:53:48;;;;;;;;;;;;;;;8.75;100.00;99763.81;6007109;23;19936;-89
2022/12/05 10:56:51;;;;;;;;;;;;;;;8.75;100.00;99769.09;6001881;23;20047;-89
2022/12/05 10:59:55;;;;;;;;;;;;;;;;;;;;;
2022/12/05 11:03:05;;;;;;;;;;;;;;;8.77;100.00;99769.03;6124551;23;20000;-87
2022/12/05 11:05:37;;;;;;;;;;;;;;;8.75;100.00;99770.88;6120264;23;20236;-90
2022/12/05 11:08:04;;;;;;;;;;;;;;;8.75;100.00;99763.81;6202906;23;20015;-95
2022/12/05 12:12:55;;;;;;;;;;;;;;;8.83;100.00;99761.75;6183140;22;19920;-91
2022/12/05 12:18:09;;;;;;;;;;;;;;;8.83;100.00;99767.03;6190339;22;19928;-87
2022/12/05 13:17:07;;;;;;;;;;;;;;;;;;;;;
2022/12/05 13:19:46;;;;;;;;;;;;;;;8.89;100.00;99747.47;6241432;23;20002;-91
2022/12/05 13:22:12;;;;;;;;;;;;;;;8.90;100.00;99747.41;6246935;23;19922;-91
2022/12/05 13:27:31;;;;;;;;;;;;;;;8.90;100.00;99747.41;6243467;22;19919;-91
2022/12/05 13:44:30;;;;;;;;;;;;;;;;;;;;;
2022/12/05 13:46:51;;;;;;;;;;;;;;;8.91;100.00;99758.84;6238104;22;20434;-93
2022/12/05 14:11:08;;;;;;;;;;;;;;;8.94;100.00;99758.72;6266914;22;20290;-91
2022/12/05 14:38:37;;;;;;;;;;;;;;;8.98;100.00;99777.97;6126050;23;19919;-91
2022/12/05 14:41:29;;;;;;;;;;;;;;;8.97;100.00;99785.06;6176888;23;20291;-91
2022/12/05 14:43:55;;;;;;;;;;;;;;;8.97;100.00;99778.91;6175891;23;19911;-92
2022/12/05 14:50:03;;;;;;;;;;;;;;;8.97;100.00;99789.47;6263724;22;20271;-90
2022/12/05 15:02:08;;;;;;;;;;;;;;;;;;;;;
2022/12/05 15:08:12;;;;;;;;;;;;;;;;;;;;;
2022/12/05 15:20:14;;;;;;;;;;;;;;;8.97;100.00;99786.84;6199968;23;20346;-91
2022/12/05 15:22:45;;;;;;;;;;;;;;;8.95;100.00;99786.00;6197216;23;19915;-92
2022/12/05 15:25:34;;;;;;;;;;;;;;;8.96;100.00;99798.31;6231623;22;19960;-90
2022/12/05 15:28:48;;;;;;;;;;;;;;;;;;;;;
2022/12/05 15:40:37;;;;;;;;;;;;;;;;;;;;;
2022/12/05 16:23:21;;;;;;;;;;;;;;;8.99;100.00;99812.28;6264036;22;20372;-96
2022/12/05 16:38:08;;;;;;;;;;;;;;;8.99;100.00;99827.28;6242499;22;19959;-92
2022/12/05 16:40:49;;;;;;;;;;;;;;;9.02;100.00;99832.47;6189386;23;20316;-91
2022/12/05 16:56:14;;;;;;;;;;;;;;;;;;;;;
2022/12/05 17:05:01;;;;;;;;;;;;;;;5.65;100.00;99849.03;6025938;23;19914;-92
2022/12/05 17:07:33;;;;;;;;;;;;;;;5.60;100.00;99854.38;6210391;23;19917;-93
2022/12/05 17:10:04;;;;;;;;;;;;;;;5.50;100.00;99862.47;6246451;23;20283;-91
2022/12/05 17:13:05;;;;;;;;;;;;;;;;;;;;;
2022/12/05 17:21:58;;;;;;;;;;;;;;;5.16;100.00;99864.03;6181058;23;20349;-90
2022/12/05 17:24:36;;;;;;;;;;;;;;;5.08;100.00;99860.69;6183155;23;19943;-89
2022/12/05 17:45:07;;;;;;;;;;;;;;;4.55;100.00;99874.75;6198752;23;19998;-88
2022/12/05 17:48:03;;;;;;;;;;;;;;;4.49;100.00;99880.09;6244302;23;19978;-89
2022/12/05 17:50:49;;;;;;;;;;;;;;;4.49;100.00;99880.09;6246634;23;19960;-89
2022/12/05 17:53:47;;;;;;;;;;;;;;;4.46;100.00;99890.63;6230044;23;19912;-89
2022/12/05 17:56:37;;;;;;;;;;;;;;;4.47;100.00;99889.75;6244849;23;20748;-88
2022/12/05 17:59:03;;;;;;;;;;;;;;;4.38;100.00;99887.28;6245415;23;19958;-87
2022/12/05 18:01:28;;;;;;;;;;;;;;;4.34;100.00;99891.72;6245977;23;19915;-88
2022/12/05 18:03:59;;;;;;;;;;;;;;;4.26;100.00;99898.84;6243965;23;19961;-89
2022/12/05 18:06:39;;;;;;;;;;;;;;;;;;;;;
2022/12/05 18:09:15;;;;;;;;;;;;;;;4.23;100.00;99898.00;6246349;23;20002;-88
2022/12/05 18:12:01;;;;;;;;;;;;;;;4.25;100.00;99896.25;6246032;23;20305;-91
2022/12/05 18:14:27;;;;;;;;;;;;;;;4.25;100.00;99899.72;6244993;23;19918;-88
2022/12/05 18:16:54;;;;;;;;;;;;;;;4.24;100.00;99899.75;6245967;23;19911;-89
2022/12/05 18:22:21;;;;;;;;;;;;;;;4.18;100.00;99903.34;6209521;23;20007;-91
2022/12/05 18:42:04;;;;;;;;;;;;;;;3.94;100.00;99915.00;6269025;22;19942;-90
2022/12/05 18:59:53;;;;;;;;;;;;;;;3.89;100.00;99930.81;6182582;23;20238;-88
2022/12/05 19:05:33;;;;;;;;;;;;;;;3.92;100.00;99927.28;6273178;22;19918;-89
2022/12/05 19:19:35;;;;;;;;;;;;;;;3.95;100.00;99940.34;6259650;22;19919;-91
2022/12/05 19:22:10;;;;;;;;;;;;;;;3.90;100.00;99940.41;6219891;23;19955;-92
2022/12/05 19:36:09;;;;;;;;;;;;;;;4.03;100.00;99942.88;6276284;22;20366;-90
2022/12/05 19:38:44;;;;;;;;;;;;;;;3.97;100.00;99939.47;6281210;22;20273;-89
2022/12/05 19:51:57;;;;;;;;;;;;;;;4.20;100.00;99951.38;6302299;22;19926;-88
2022/12/05 19:54:28;;;;;;;;;;;;;;;4.25;100.00;99953.94;6308107;22;19914;-90
2022/12/05 20:38:40;;;;;;;;;;;;;;;4.54;100.00;99943.84;6108970;22;20241;-89
2022/12/05 20:41:40;;;;;;;;;;;;;;;4.57;100.00;99952.59;6212612;23;19917;-91
2022/12/05 20:44:14;;;;;;;;;;;;;;;4.71;100.00;99956.72;6099708;23;19913;-88
2022/12/05 20:46:40;;;;;;;;;;;;;;;4.67;100.00;99954.16;6129508;22;19913;-86
2022/12/05 20:49:36;;;;;;;;;;;;;;;4.65;100.00;99950.72;6122431;23;19920;-89
2022/12/05 20:55:37;;;;;;;;;;;;;;;;;;;;;
2022/12/05 21:01:46;;;;;;;;;;;;;;;4.65;100.00;99958.59;6151647;22;20222;-88
2022/12/05 21:04:17;;;;;;;;;;;;;;;4.66;100.00;99949.81;6223357;23;19913;-87
2022/12/05 21:06:45;;;;;;;;;;;;;;;4.66;100.00;99960.31;6121190;23;19919;-89
2022/12/05 21:09:24;;;;;;;;;;;;;;;;;;;;;
2022/12/05 21:11:58;;;;;;;;;;;;;;;4.53;100.00;99951.75;6122298;23;19980;-87
2022/12/05 21:14:51;;;;;;;;;;;;;;;4.52;100.00;99957.91;6224487;23;19925;-87
2022/12/05 21:17:29;;;;;;;;;;;;;;;;;;;;;
2022/12/05 21:20:15;;;;;;;;;;;;;;;;;;;;;
2022/12/05 21:22:58;;;;;;;;;;;;;;;4.53;100.00;99947.41;6120968;23;19991;-88
2022/12/05 21:25:59;;;;;;;;;;;;;;;4.50;100.00;99944.81;6224323;23;20000;-88
2022/12/05 21:28:27;;;;;;;;;;;;;;;4.52;100.00;99931.66;6224431;23;19913;-87
2022/12/05 21:31:12;;;;;;;;;;;;;;;4.53;100.00;99934.28;6122404;23;19984;-87
2022/12/05 21:33:41;;;;;;;;;;;;;;;4.50;100.00;99936.94;6122823;23;20342;-89
2022/12/05 21:36:46;;;;;;;;;;;;;;;;;;;;;
2022/12/05 21:39:12;;;;;;;;;;;;;;;4.54;100.00;99938.59;6122189;23;19997;-87
2022/12/05 21:41:40;;;;;;;;;;;;;;;4.54;100.00;99938.59;6223768;23;20340;-88
2022/12/05 21:44:06;;;;;;;;;;;;;;;4.60;100.00;99939.44;6122631;23;19920;-88
2022/12/05 21:49:43;;;;;;;;;;;;;;;4.60;100.00;99934.19;6182744;23;19987;-88
2022/12/05 21:55:58;;;;;;;;;;;;;;;4.68;100.00;99932.28;6122062;23;20218;-86
2022/12/05 21:58:42;;;;;;;;;;;;;;;4.62;100.00;99938.50;6223856;23;19913;-87
2022/12/05 22:01:19;;;;;;;;;;;;;;;;;;;;;
2022/12/05 22:04:05;;;;;;;;;;;;;;;4.64;100.00;99941.97;6122681;23;20015;-86
2022/12/05 22:06:32;;;;;;;;;;;;;;;4.65;100.00;99927.09;6120901;22;19913;-85
2022/12/05 22:15:29;;;;;;;;;;;;;;;4.66;100.00;99940.19;6152744;22;19913;-88
2022/12/05 22:21:33;;;;;;;;;;;;;;;;;;;;;
2022/12/05 22:24:18;;;;;;;;;;;;;;;;;;;;;
2022/12/05 22:27:25;;;;;;;;;;;;;;;4.67;100.00;99930.53;6008518;23;20410;-86
2022/12/05 22:30:19;;;;;;;;;;;;;;;;;;;;;
2022/12/05 22:36:06;;;;;;;;;;;;;;;4.64;100.00;99938.47;6123823;23;19913;-87
2022/12/05 22:38:49;;;;;;;;;;;;;;;4.64;100.00;99949.84;6055606;23;20004;-86
2022/12/05 22:41:37;;;;;;;;;;;;;;;;;;;;;
2022/12/05 22:47:19;;;;;;;;;;;;;;;4.73;100.00;99935.69;6096167;23;19917;-86
2022/12/05 22:49:44;;;;;;;;;;;;;;;4.74;100.00;99929.56;6125377;23;19913;-86
2022/12/05 22:52:15;;;;;;;;;;;;;;;4.81;100.00;99933.81;6124830;23;20292;-86
2022/12/05 22:57:52;;;;;;;;;;;;;;;4.81;100.00;99939.06;5987640;23;19994;-84
2022/12/05 23:00:56;;;;;;;;;;;;;;;;;;;;;
2022/12/05 23:03:22;;;;;;;;;;;;;;;4.88;100.00;99942.44;6050027;23;20007;-85
2022/12/05 23:06:24;;;;;;;;;;;;;;;;;;;;;
2022/12/05 23:12:38;;;;;;;;;;;;;;;;;;;;;
2022/12/05 23:18:56;;;;;;;;;;;;;;;5.11;100.00;99928.91;6262016;22;19911;-91
2022/12/05 23:28:07;;;;;;;;;;;;;;;5.26;100.00;99926.03;6243582;22;19911;-87
2022/12/05 23:47:12;;;;;;;;;;;;;;;;;;;;;
